Main page
METAR-TAF:

METAR-TAF

Airports :

Gran Canaria Airport

Gran Canaria, Spain

latitude: 27-56N, longitude: 015-23W, elevation: 23 m

Current weather observation

The report was made 26 minutes ago, at 19:30 UTC
Wind 9 kt from the North/Northwest, varying between West/Northwest and North
Temperature 22°C
Humidity 53%
Pressure 1018 hPa
Visibility 10 km or more
Few clouds at a height of 3000 ft

METAR: GCLP 281930Z 34009KT 290V360 9999 FEW030 22/12 Q1018 NOSIG

Time: 20:56 (19:56 UTC)

Forecast

The report was made 5 hours and 56 minutes ago, at 14:00 UTC
Forecast valid from 28 at 15 UTC to 29 at 15 UTC
Wind 19 kt from the North/Northeast
Visibility 10 km or more
Scattered clouds at a height of 3000 ft
Becoming
from 28 at 20 UTC to 28 at 22 UTC
Wind 11 kt from the North/Northwest
Becoming
from 29 at 08 UTC to 29 at 10 UTC
Wind 14 kt from the North/Northeast

TAF: GCLP 281400Z 2815/2915 03019KT 9999 SCT030 TX25/2914Z TN20/2906Z BECMG 2820/2822 33011KT BECMG 2908/2910 03014KT

Weather observations and forecasts of more than 4000 airports (METAR and TAF reports).

The available stations are represented by yellow and red dots on the map.

Hover mouse over dot to see the name of the station.

Then click to see weather observations and forecasts.

To change the map : click on the green buttons with a black cross to zoom in, on the green button with a dash to zoom out, or on the green arrows for adjacent maps.


METAR-TAF: